Time;durP1;ratioP1;P1;durP2;ratioP2;P2;SDS_P1;SDS_P2;PMS_P1;PMS_P2;Temp;Humidity;BMP_temperature;BMP_pressure;BME280_temperature;BME280_humidity;BME280_pressure;Samples;Min_cycle;Max_cycle;Signal;HPM_P1;HPM_P2
2022/01/03 00:01:16;;;;;;;10.40;2.80;;;8.90;99.90;;;;;;5057513;28;20048;-56
2022/01/03 00:03:42;;;;;;;12.85;2.78;;;9.00;99.90;;;;;;5062417;28;20056;-57
2022/01/03 00:06:08;;;;;;;14.85;2.50;;;9.00;99.90;;;;;;5058834;28;20037;-56
2022/01/03 00:08:33;;;;;;;16.40;3.17;;;9.00;99.90;;;;;;5059499;28;20059;-56
2022/01/03 00:10:59;;;;;;;16.05;3.15;;;9.10;99.90;;;;;;5061113;28;20048;-57
2022/01/03 00:13:25;;;;;;;13.38;3.45;;;9.10;99.90;;;;;;5059262;28;21354;-58
2022/01/03 00:15:52;;;;;;;16.13;3.10;;;9.10;99.90;;;;;;5063719;28;20418;-58
2022/01/03 00:18:19;;;;;;;15.95;2.80;;;9.10;99.90;;;;;;5059920;28;20048;-57
2022/01/03 00:20:55;;;;;;;15.40;2.83;;;9.20;99.90;;;;;;5060939;28;20125;-57
2022/01/03 00:23:24;;;;;;;15.95;3.05;;;9.20;99.90;;;;;;5059889;28;20044;-58
2022/01/03 00:25:53;;;;;;;16.27;3.15;;;9.20;99.90;;;;;;5060872;28;20072;-56
2022/01/03 00:28:23;;;;;;;22.00;3.25;;;9.30;99.90;;;;;;5059600;28;20074;-57
2022/01/03 00:30:54;;;;;;;16.73;3.90;;;9.30;99.90;;;;;;5060518;28;20136;-57
2022/01/03 00:33:20;;;;;;;18.10;3.08;;;9.30;99.90;;;;;;5061275;28;20060;-57
2022/01/03 00:35:53;;;;;;;20.33;3.45;;;9.40;99.90;;;;;;5061696;28;20055;-55
2022/01/03 00:38:20;;;;;;;21.42;3.65;;;9.40;99.90;;;;;;5060078;28;20044;-57
2022/01/03 00:40:46;;;;;;;13.77;2.60;;;9.40;99.90;;;;;;5060640;28;20498;-56
2022/01/03 00:43:14;;;;;;;18.27;3.30;;;9.40;99.90;;;;;;5060844;28;20119;-56
2022/01/03 00:45:40;;;;;;;22.67;3.35;;;9.50;99.90;;;;;;5061609;28;20044;-57
2022/01/03 00:48:09;;;;;;;17.80;3.67;;;9.40;99.90;;;;;;5062612;28;20040;-56
2022/01/03 00:50:36;;;;;;;18.83;3.22;;;9.50;99.90;;;;;;5061256;28;20036;-57
2022/01/03 00:53:02;;;;;;;15.95;2.60;;;9.50;99.90;;;;;;5065632;28;20045;-55
2022/01/03 00:55:27;;;;;;;18.88;3.28;;;9.50;99.90;;;;;;5068342;28;20051;-57
2022/01/03 00:58:09;;;;;;;19.90;3.15;;;9.50;99.90;;;;;;5059530;28;20501;-59
2022/01/03 01:00:38;;;;;;;17.52;2.95;;;9.50;99.90;;;;;;5060272;28;20156;-56
2022/01/03 01:03:15;;;;;;;18.90;3.03;;;9.50;99.90;;;;;;5057847;28;20060;-57
2022/01/03 01:05:43;;;;;;;19.15;3.38;;;9.50;99.90;;;;;;5066704;28;20052;-57
2022/01/03 01:08:09;;;;;;;;;;;9.50;99.90;;;;;;5066598;28;20567;-55
2022/01/03 01:10:38;;;;;;;25.80;3.47;;;9.50;99.90;;;;;;5066288;28;20094;-57
2022/01/03 01:13:07;;;;;;;23.90;3.40;;;9.50;99.90;;;;;;5063033;28;20055;-57
2022/01/03 01:15:34;;;;;;;18.60;4.13;;;9.50;99.90;;;;;;5053395;28;20482;-57
2022/01/03 01:18:03;;;;;;;23.20;3.50;;;9.50;99.90;;;;;;5060623;28;20115;-58
2022/01/03 01:20:30;;;;;;;20.38;3.17;;;9.50;99.90;;;;;;5061003;28;20486;-57
2022/01/03 01:22:56;;;;;;;15.43;3.35;;;9.50;99.90;;;;;;5057945;28;20060;-56
2022/01/03 01:27:45;;;;;;;17.13;3.53;;;9.60;99.90;;;;;;5060502;28;20045;-55
2022/01/03 01:28:10;;;;;;;19.00;3.00;;;9.50;99.90;;;;;;5058988;28;20045;-56
2022/01/03 01:30:36;;;;;;;15.68;2.95;;;9.60;99.90;;;;;;5064767;28;20036;-56
2022/01/03 01:33:11;;;;;;;19.15;3.42;;;9.60;99.90;;;;;;5061320;28;20037;-56
2022/01/03 01:35:50;;;;;;;19.52;3.38;;;9.60;99.90;;;;;;5063289;28;20041;-57
2022/01/03 01:38:19;;;;;;;17.75;3.05;;;9.60;99.90;;;;;;5064327;28;20036;-57
2022/01/03 01:40:56;;;;;;;18.00;3.63;;;9.60;99.90;;;;;;5066015;28;20044;-56
2022/01/03 01:43:30;;;;;;;20.05;3.30;;;9.60;99.90;;;;;;5060826;28;20102;-55
2022/01/03 01:45:58;;;;;;;14.73;2.97;;;9.60;99.90;;;;;;5056525;28;20047;-57
2022/01/03 01:48:24;;;;;;;18.40;3.15;;;9.60;99.90;;;;;;5062140;28;20051;-57
2022/01/03 01:50:51;;;;;;;18.05;2.75;;;9.60;99.90;;;;;;5064781;28;20041;-57
2022/01/03 01:53:23;;;;;;;15.38;2.97;;;9.60;99.90;;;;;;5069122;28;20414;-57
2022/01/03 01:55:51;;;;;;;20.63;3.45;;;9.60;99.90;;;;;;5067449;28;20037;-57
2022/01/03 01:58:28;;;;;;;14.70;2.80;;;9.60;99.90;;;;;;5061435;28;20092;-56
2022/01/03 02:00:59;;;;;;;15.43;2.97;;;9.60;99.90;;;;;;5064995;28;20059;-57
2022/01/03 02:03:47;;;;;;;15.60;2.90;;;9.60;99.90;;;;;;5066305;28;20084;-55
2022/01/03 02:06:22;;;;;;;;;;;9.60;99.90;;;;;;5067140;28;20102;-55
2022/01/03 02:09:07;;;;;;;16.17;2.92;;;9.60;99.90;;;;;;5065709;28;20031;-57
2022/01/03 02:11:50;;;;;;;17.10;3.45;;;9.60;99.90;;;;;;5064349;28;20083;-57
2022/01/03 02:14:17;;;;;;;16.15;2.72;;;9.60;99.90;;;;;;5065984;28;20059;-56
2022/01/03 02:16:43;;;;;;;15.90;2.97;;;9.60;99.90;;;;;;5056866;28;20048;-57
2022/01/03 02:19:10;;;;;;;17.27;3.13;;;9.50;99.90;;;;;;5064162;28;20479;-56
2022/01/03 02:21:36;;;;;;;14.17;2.90;;;9.50;99.90;;;;;;5059792;28;20071;-57
2022/01/03 02:24:04;;;;;;;18.55;3.30;;;9.40;99.90;;;;;;5065112;28;20045;-57
2022/01/03 02:26:29;;;;;;;14.57;3.45;;;9.30;99.90;;;;;;5067446;28;20090;-58
2022/01/03 02:28:56;;;;;;;18.10;3.35;;;9.30;99.90;;;;;;5063192;28;20036;-58
2022/01/03 02:31:22;;;;;;;19.05;3.15;;;9.20;99.90;;;;;;5070137;28;20040;-56
2022/01/03 02:33:48;;;;;;;24.38;3.17;;;9.10;99.90;;;;;;5066102;28;20052;-57
2022/01/03 02:36:16;;;;;;;15.95;3.05;;;9.10;99.90;;;;;;5063882;28;20394;-55
2022/01/03 02:38:42;;;;;;;21.43;3.43;;;9.00;99.90;;;;;;5061900;28;20459;-57
2022/01/03 02:41:07;;;;;;;18.77;3.67;;;9.00;99.90;;;;;;5074728;28;20677;-57
2022/01/03 02:43:33;;;;;;;16.23;3.00;;;9.00;99.90;;;;;;5060328;28;20467;-57
2022/01/03 02:45:58;;;;;;;16.63;3.17;;;8.90;99.90;;;;;;5063121;28;20403;-57
2022/01/03 02:48:26;;;;;;;18.42;3.40;;;8.90;99.90;;;;;;5060290;28;20101;-57
2022/01/03 02:50:52;;;;;;;20.20;4.57;;;8.90;99.90;;;;;;5059921;28;20056;-55
2022/01/03 02:53:18;;;;;;;19.52;3.33;;;8.90;99.90;;;;;;5066300;28;20048;-57
2022/01/03 02:55:44;;;;;;;24.48;4.20;;;8.80;99.90;;;;;;5065328;28;20131;-57
2022/01/03 02:58:09;;;;;;;21.08;3.53;;;8.80;99.90;;;;;;5055927;28;20581;-56
2022/01/03 03:00:45;;;;;;;19.30;3.10;;;8.70;99.90;;;;;;5058067;28;20033;-57
2022/01/03 03:03:11;;;;;;;22.25;3.35;;;8.70;99.90;;;;;;5065081;28;20135;-57
2022/01/03 03:05:37;;;;;;;21.55;3.38;;;8.70;99.90;;;;;;5061268;28;20520;-56
2022/01/03 03:08:03;;;;;;;20.38;3.58;;;8.70;99.90;;;;;;5067098;28;20140;-57
2022/01/03 03:10:28;;;;;;;22.23;3.47;;;8.60;99.90;;;;;;5066048;28;20044;-56
2022/01/03 03:12:55;;;;;;;21.67;4.07;;;8.70;99.90;;;;;;5065378;28;20080;-59
2022/01/03 03:15:20;;;;;;;19.05;3.78;;;8.70;99.90;;;;;;5060443;28;20098;-57
2022/01/03 03:17:47;;;;;;;20.20;3.67;;;8.70;99.90;;;;;;5065810;28;21405;-56
2022/01/03 03:20:25;;;;;;;20.10;3.40;;;8.70;99.90;;;;;;5065622;28;20146;-57
2022/01/03 03:22:51;;;;;;;18.23;3.80;;;8.80;99.90;;;;;;5065997;28;20494;-57
2022/01/03 03:25:26;;;;;;;21.75;3.75;;;8.80;99.90;;;;;;5065969;28;20132;-55
2022/01/03 03:27:55;;;;;;;26.90;3.78;;;8.80;99.90;;;;;;5058279;28;20229;-57
2022/01/03 03:30:23;;;;;;;21.02;3.45;;;8.80;99.90;;;;;;5062574;28;20048;-57
2022/01/03 03:32:51;;;;;;;21.42;3.53;;;8.80;99.90;;;;;;5066554;28;20403;-56
2022/01/03 03:35:17;;;;;;;20.95;3.60;;;8.80;99.90;;;;;;5063180;28;20033;-57
2022/01/03 03:37:43;;;;;;;25.10;4.03;;;8.80;99.90;;;;;;5064789;28;20045;-56
2022/01/03 03:40:10;;;;;;;17.83;3.60;;;8.80;99.90;;;;;;5060646;28;20156;-58
2022/01/03 03:42:35;;;;;;;24.40;4.40;;;8.80;99.90;;;;;;5060192;28;20454;-56
2022/01/03 03:45:03;;;;;;;20.80;3.88;;;8.90;99.90;;;;;;5062775;28;20091;-56
2022/01/03 03:47:28;;;;;;;23.83;3.80;;;8.90;99.90;;;;;;5059595;28;20048;-58
2022/01/03 03:49:54;;;;;;;22.17;3.70;;;8.90;99.90;;;;;;5063548;28;20040;-57
2022/01/03 03:52:20;;;;;;;21.55;3.50;;;8.90;99.90;;;;;;5062631;28;20043;-56
2022/01/03 03:54:45;;;;;;;26.15;4.47;;;9.00;99.90;;;;;;5062799;28;20080;-57
2022/01/03 03:57:12;;;;;;;24.33;3.53;;;9.00;99.90;;;;;;5061825;28;20106;-56
2022/01/03 03:59:38;;;;;;;25.88;4.15;;;8.90;99.90;;;;;;5060682;28;20052;-56
2022/01/03 04:02:04;;;;;;;26.48;4.10;;;8.90;99.90;;;;;;5064316;28;20120;-57
2022/01/03 04:04:29;;;;;;;21.17;3.50;;;9.00;99.90;;;;;;5060239;28;20052;-57
2022/01/03 04:06:55;;;;;;;21.23;3.85;;;9.00;99.90;;;;;;5058940;28;20037;-57
2022/01/03 04:09:20;;;;;;;21.67;3.75;;;9.10;99.90;;;;;;5064517;28;20044;-56
2022/01/03 04:11:47;;;;;;;22.48;4.18;;;9.00;99.90;;;;;;5058546;28;20080;-57
2022/01/03 04:14:13;;;;;;;22.25;3.58;;;9.10;99.90;;;;;;5060312;28;20045;-56
2022/01/03 04:16:38;;;;;;;28.52;3.75;;;9.10;99.90;;;;;;5059311;28;20045;-57
2022/01/03 04:19:05;;;;;;;22.35;4.22;;;9.10;99.90;;;;;;5061970;28;20040;-57
2022/01/03 04:21:31;;;;;;;23.58;4.55;;;9.10;99.90;;;;;;5063497;28;20110;-57
2022/01/03 04:23:57;;;;;;;21.73;4.10;;;9.10;99.90;;;;;;5061565;28;20335;-56
2022/01/03 04:26:22;;;;;;;27.55;4.10;;;9.10;99.90;;;;;;5064736;28;20183;-57
2022/01/03 04:28:48;;;;;;;21.13;3.70;;;9.10;99.90;;;;;;5061786;28;20487;-55
2022/01/03 04:31:15;;;;;;;24.25;3.97;;;9.10;99.90;;;;;;5066765;28;20036;-57
2022/01/03 04:33:41;;;;;;;22.70;3.92;;;9.10;99.90;;;;;;5061211;28;20044;-57
2022/01/03 04:36:07;;;;;;;25.38;3.80;;;9.10;99.90;;;;;;5064594;28;20040;-55
2022/01/03 04:38:33;;;;;;;21.75;4.15;;;9.10;99.90;;;;;;5061156;28;20048;-58
2022/01/03 04:41:02;;;;;;;18.83;3.90;;;9.10;99.90;;;;;;5057443;28;20040;-56
2022/01/03 04:43:27;;;;;;;26.98;4.00;;;9.10;99.90;;;;;;5065111;28;20078;-57
2022/01/03 04:45:56;;;;;;;19.42;4.05;;;9.20;99.90;;;;;;5061083;28;20032;-57
2022/01/03 04:48:21;;;;;;;;;;;9.10;99.90;;;;;;5058061;28;20049;-56
2022/01/03 04:50:47;;;;;;;26.15;3.83;;;9.10;99.90;;;;;;5058845;28;19952;-56
2022/01/03 04:53:13;;;;;;;22.13;4.03;;;9.20;99.90;;;;;;5065910;28;20119;-56
2022/01/03 04:55:39;;;;;;;24.20;3.97;;;9.20;99.90;;;;;;5059784;28;20751;-58
2022/01/03 04:58:05;;;;;;;24.80;3.85;;;9.10;99.90;;;;;;5055698;28;20037;-58
2022/01/03 05:00:30;;;;;;;22.70;4.57;;;9.20;99.90;;;;;;5058869;28;20062;-57
2022/01/03 05:02:56;;;;;;;26.90;5.38;;;9.30;99.90;;;;;;5062861;28;20037;-57
2022/01/03 05:05:22;;;;;;;29.52;4.30;;;9.20;99.90;;;;;;5065911;28;20045;-55
2022/01/03 05:07:48;;;;;;;25.02;4.15;;;9.30;99.90;;;;;;5062452;28;20051;-56
2022/01/03 05:10:13;;;;;;;21.30;3.75;;;9.30;99.90;;;;;;5060567;28;20040;-57
2022/01/03 05:12:39;;;;;;;29.85;4.47;;;9.20;99.90;;;;;;5062153;28;20056;-55
2022/01/03 05:15:05;;;;;;;25.85;4.00;;;9.20;99.90;;;;;;5067550;28;20040;-56
2022/01/03 05:17:31;;;;;;;22.73;4.32;;;9.20;99.90;;;;;;5068581;28;20048;-57
2022/01/03 05:19:58;;;;;;;25.48;4.75;;;9.20;99.90;;;;;;5057462;28;20043;-56
2022/01/03 05:22:24;;;;;;;29.17;4.10;;;9.20;99.90;;;;;;5060146;28;20155;-55
2022/01/03 05:24:49;;;;;;;27.77;4.05;;;9.10;99.90;;;;;;5062486;28;20514;-56
2022/01/03 05:27:15;;;;;;;29.33;5.07;;;9.10;99.90;;;;;;5065638;28;20060;-55
2022/01/03 05:29:40;;;;;;;18.67;3.75;;;9.10;99.90;;;;;;5064110;28;20127;-57
2022/01/03 05:32:06;;;;;;;25.95;4.93;;;9.10;99.90;;;;;;5068326;28;20041;-57
2022/01/03 05:34:31;;;;;;;26.92;4.28;;;9.10;99.90;;;;;;5069212;28;20041;-55
2022/01/03 05:36:57;;;;;;;26.70;4.35;;;9.00;99.90;;;;;;5070828;28;20037;-57
2022/01/03 05:39:23;;;;;;;27.10;5.00;;;9.00;99.90;;;;;;5062815;28;20040;-57
2022/01/03 05:41:48;;;;;;;26.88;5.00;;;9.10;99.90;;;;;;5063991;28;20075;-57
2022/01/03 05:44:14;;;;;;;25.88;4.97;;;9.10;99.90;;;;;;5063479;28;20062;-57
2022/01/03 05:46:39;;;;;;;28.42;4.53;;;9.10;99.90;;;;;;5067850;28;20052;-56
2022/01/03 05:49:07;;;;;;;28.38;5.15;;;9.10;99.90;;;;;;5060720;28;20045;-55
2022/01/03 05:51:32;;;;;;;30.97;5.63;;;9.10;99.90;;;;;;5069878;28;20040;-55
2022/01/03 05:53:58;;;;;;;31.77;5.35;;;9.00;99.90;;;;;;5063122;28;20426;-56
2022/01/03 05:56:23;;;;;;;28.17;4.10;;;9.00;99.90;;;;;;5070365;28;20474;-56
2022/01/03 05:58:50;;;;;;;31.02;5.63;;;9.00;99.90;;;;;;5062509;28;20106;-56
2022/01/03 06:01:15;;;;;;;36.70;5.88;;;8.90;99.90;;;;;;5065545;28;20071;-56
2022/01/03 06:03:41;;;;;;;26.88;4.60;;;8.90;99.90;;;;;;5067582;28;20036;-56
2022/01/03 06:08:36;;;;;;;26.88;4.70;;;8.80;99.90;;;;;;5064282;28;20104;-57
2022/01/03 06:11:03;;;;;;;31.27;5.13;;;8.70;99.90;;;;;;5063974;28;20045;-57
2022/01/03 06:13:28;;;;;;;21.35;4.32;;;8.70;99.90;;;;;;5065308;28;20116;-56
2022/01/03 06:15:54;;;;;;;34.85;5.07;;;8.60;99.90;;;;;;5064710;28;20056;-57
2022/01/03 06:18:20;;;;;;;27.90;4.47;;;8.70;99.90;;;;;;5058702;28;20056;-57
2022/01/03 06:20:48;;;;;;;32.55;5.40;;;8.80;99.90;;;;;;5067888;28;20076;-57
2022/01/03 06:23:15;;;;;;;32.45;5.63;;;8.70;99.90;;;;;;5065107;28;20032;-56
2022/01/03 06:25:41;;;;;;;31.23;5.57;;;8.70;99.90;;;;;;5060945;28;20049;-56
2022/01/03 06:28:08;;;;;;;23.40;4.85;;;8.80;99.90;;;;;;5065705;28;20182;-56
2022/01/03 06:30:35;;;;;;;28.77;4.78;;;8.90;99.90;;;;;;5064176;28;20109;-57
2022/01/03 06:33:02;;;;;;;31.30;5.05;;;8.90;99.90;;;;;;5065949;28;20044;-56
2022/01/03 06:35:28;;;;;;;31.20;5.47;;;8.90;99.90;;;;;;5069289;28;20119;-57
2022/01/03 06:37:53;;;;;;;36.30;5.80;;;9.00;99.90;;;;;;5064163;28;20048;-57
2022/01/03 06:40:19;;;;;;;29.83;5.22;;;9.00;99.90;;;;;;5062426;28;20119;-55
2022/01/03 06:42:44;;;;;;;32.15;5.95;;;9.00;99.90;;;;;;5061817;28;20090;-57
2022/01/03 06:45:10;;;;;;;35.88;5.63;;;8.90;99.90;;;;;;5064421;28;20098;-58
2022/01/03 06:47:35;;;;;;;29.50;5.38;;;8.90;99.90;;;;;;5062227;28;20040;-56
2022/01/03 06:50:01;;;;;;;35.40;5.60;;;8.80;99.90;;;;;;5062856;28;20056;-57
2022/01/03 06:52:27;;;;;;;27.80;4.85;;;8.80;99.90;;;;;;5067265;28;20506;-57
2022/01/03 06:54:52;;;;;;;26.02;4.53;;;8.80;99.90;;;;;;5058925;28;20044;-56
2022/01/03 06:57:18;;;;;;;29.67;5.90;;;8.70;99.90;;;;;;5063826;28;20052;-56
2022/01/03 06:59:43;;;;;;;31.42;5.50;;;8.70;99.90;;;;;;5064089;28;20071;-55
2022/01/03 07:02:10;;;;;;;30.15;5.07;;;8.80;99.90;;;;;;5063840;28;20041;-56
2022/01/03 07:04:35;;;;;;;37.13;5.90;;;8.80;99.90;;;;;;5063703;28;20459;-56
2022/01/03 07:07:01;;;;;;;23.40;5.10;;;8.80;99.90;;;;;;5058648;28;20033;-56
2022/01/03 07:09:26;;;;;;;35.30;5.18;;;8.90;99.90;;;;;;5059834;28;20083;-57
2022/01/03 07:11:52;;;;;;;31.48;4.90;;;9.00;99.90;;;;;;5064096;28;20159;-58
2022/01/03 07:19:35;;;;;;;33.75;4.97;;;9.10;99.90;;;;;;5063033;28;20519;-54
2022/01/03 07:22:04;;;;;;;33.65;5.22;;;9.10;99.90;;;;;;5059960;28;20076;-57
2022/01/03 07:24:34;;;;;;;33.72;6.07;;;9.10;99.90;;;;;;5061539;28;20190;-58
2022/01/03 07:27:01;;;;;;;25.23;4.68;;;9.20;99.90;;;;;;5064930;28;20044;-56
2022/01/03 07:29:27;;;;;;;30.63;5.45;;;9.20;99.90;;;;;;5064354;28;20048;-56
2022/01/03 07:31:53;;;;;;;28.00;4.88;;;9.20;99.90;;;;;;5060807;28;20040;-56
2022/01/03 07:34:19;;;;;;;29.83;5.53;;;9.20;99.90;;;;;;5057930;28;20479;-56
2022/01/03 07:36:44;;;;;;;29.05;5.40;;;9.30;99.90;;;;;;5058845;28;20048;-57
2022/01/03 07:39:10;;;;;;;30.77;4.93;;;9.20;99.90;;;;;;5066218;28;20152;-56
2022/01/03 07:41:35;;;;;;;28.20;5.03;;;9.30;99.90;;;;;;5061627;28;20461;-57
2022/01/03 07:44:01;;;;;;;27.30;5.10;;;9.30;99.90;;;;;;5060024;28;20045;-56
2022/01/03 07:46:26;;;;;;;34.88;5.57;;;9.30;99.90;;;;;;5063581;28;20037;-56
2022/01/03 07:48:52;;;;;;;29.23;5.20;;;9.30;99.90;;;;;;5069077;28;20140;-56
2022/01/03 07:51:17;;;;;;;25.80;4.85;;;9.30;99.90;;;;;;5065506;28;20090;-56
2022/01/03 07:53:43;;;;;;;34.00;4.90;;;9.30;99.90;;;;;;5064610;28;20094;-56
2022/01/03 07:56:12;;;;;;;27.67;5.63;;;9.30;99.90;;;;;;5066902;28;20048;-56
2022/01/03 07:58:38;;;;;;;26.70;5.18;;;9.30;99.90;;;;;;5064719;28;20102;-56
2022/01/03 08:01:04;;;;;;;24.17;4.82;;;9.40;99.90;;;;;;5062415;28;20059;-56
2022/01/03 08:03:30;;;;;;;28.15;5.07;;;9.40;99.90;;;;;;5059995;28;20040;-56
2022/01/03 08:05:56;;;;;;;30.83;5.55;;;9.40;99.90;;;;;;5063381;28;20044;-57
2022/01/03 08:08:22;;;;;;;30.02;4.45;;;9.40;99.90;;;;;;5067220;28;20076;-55
2022/01/03 08:10:47;;;;;;;28.52;5.30;;;9.40;99.90;;;;;;5059536;28;20044;-56
2022/01/03 08:13:14;;;;;;;27.77;4.85;;;9.40;99.90;;;;;;5063494;28;20082;-56
2022/01/03 08:15:40;;;;;;;27.85;4.90;;;9.40;99.90;;;;;;5062700;28;20392;-57
2022/01/03 08:18:06;;;;;;;28.40;5.22;;;9.40;99.90;;;;;;5061912;28;20040;-56
2022/01/03 08:20:32;;;;;;;29.13;5.00;;;9.40;99.90;;;;;;5062272;28;20041;-56
2022/01/03 08:22:57;;;;;;;27.63;4.75;;;9.40;99.90;;;;;;5060832;28;20040;-56
2022/01/03 08:25:24;;;;;;;23.60;4.30;;;9.50;99.90;;;;;;5059263;28;20037;-58
2022/01/03 08:27:50;;;;;;;26.02;5.00;;;9.50;99.90;;;;;;5057341;28;20087;-56
2022/01/03 08:30:15;;;;;;;26.40;5.10;;;9.40;99.90;;;;;;5069057;28;20044;-56
2022/01/03 08:32:41;;;;;;;26.63;5.00;;;9.40;99.90;;;;;;5070790;28;20419;-58
2022/01/03 08:35:08;;;;;;;27.45;4.55;;;9.50;99.90;;;;;;5061996;28;20115;-58
2022/01/03 08:37:33;;;;;;;27.42;4.82;;;9.50;99.90;;;;;;5056531;28;20044;-57
2022/01/03 08:40:03;;;;;;;28.63;4.95;;;9.50;99.90;;;;;;5060259;28;20049;-57
2022/01/03 08:42:29;;;;;;;25.10;4.53;;;9.50;99.90;;;;;;5060367;28;20056;-56
2022/01/03 08:44:55;;;;;;;31.02;4.78;;;9.50;99.90;;;;;;5064302;28;20060;-58
2022/01/03 08:47:20;;;;;;;31.33;4.93;;;9.60;99.90;;;;;;5064163;28;20045;-57
2022/01/03 08:49:46;;;;;;;30.85;6.53;;;9.60;99.90;;;;;;5065016;28;20127;-56
2022/01/03 08:52:12;;;;;;;26.50;4.43;;;9.60;99.90;;;;;;5060727;28;20052;-56
2022/01/03 08:54:37;;;;;;;28.33;5.32;;;9.60;99.90;;;;;;5058950;28;20041;-56
2022/01/03 08:57:03;;;;;;;29.65;5.82;;;9.70;99.90;;;;;;5055795;28;20060;-57
2022/01/03 08:59:28;;;;;;;26.05;5.13;;;9.70;99.90;;;;;;5056009;28;20170;-56
2022/01/03 09:01:54;;;;;;;24.70;4.30;;;9.70;99.90;;;;;;5068241;28;20090;-56
2022/01/03 09:04:20;;;;;;;27.10;4.47;;;9.70;99.90;;;;;;5067836;28;20049;-56
2022/01/03 09:06:45;;;;;;;27.77;4.47;;;9.70;99.90;;;;;;5063491;28;20045;-57
2022/01/03 09:09:11;;;;;;;28.20;4.53;;;9.80;99.90;;;;;;5063577;28;20376;-55
2022/01/03 09:11:36;;;;;;;23.58;4.55;;;9.80;99.90;;;;;;5070237;28;20133;-56
2022/01/03 09:14:02;;;;;;;27.77;4.70;;;9.80;99.90;;;;;;5070390;28;20059;-56
2022/01/03 09:16:28;;;;;;;26.08;4.00;;;9.80;99.90;;;;;;5073093;28;20040;-56
2022/01/03 09:18:53;;;;;;;24.90;4.78;;;9.80;99.90;;;;;;5074452;28;20032;-56
2022/01/03 09:21:19;;;;;;;27.90;4.90;;;9.80;99.90;;;;;;5068103;28;20138;-56
2022/01/03 09:23:50;;;;;;;22.67;3.95;;;9.90;99.90;;;;;;5073257;28;20378;-56
2022/01/03 09:29:00;;;;;;;19.60;3.53;;;9.90;99.90;;;;;;5067949;28;20405;-56
2022/01/03 09:31:31;;;;;;;27.10;4.82;;;9.90;99.90;;;;;;5070824;28;20040;-56
2022/01/03 09:33:59;;;;;;;25.65;4.38;;;9.90;99.90;;;;;;5073270;28;20032;-56
2022/01/03 09:36:26;;;;;;;25.55;4.38;;;9.90;99.90;;;;;;5070133;28;20056;-58
2022/01/03 09:38:52;;;;;;;24.20;4.73;;;9.90;99.90;;;;;;5073958;28;20033;-55
2022/01/03 09:41:21;;;;;;;23.00;4.68;;;9.90;99.90;;;;;;5071866;28;20302;-56
2022/01/03 09:43:54;;;;;;;27.02;4.43;;;9.90;99.90;;;;;;5072227;28;20056;-56
2022/01/03 09:46:31;;;;;;;26.08;3.75;;;9.90;99.90;;;;;;5074146;28;20502;-55
2022/01/03 09:48:57;;;;;;;20.83;4.30;;;9.90;99.90;;;;;;5072133;28;20064;-56
2022/01/03 09:51:27;;;;;;;22.02;4.38;;;9.90;99.90;;;;;;5074763;28;20094;-56
2022/01/03 09:53:55;;;;;;;21.92;4.25;;;10.00;99.90;;;;;;5068788;28;20047;-55
2022/01/03 09:56:21;;;;;;;14.77;3.53;;;10.00;99.90;;;;;;5074070;28;20052;-57
2022/01/03 09:58:48;;;;;;;24.77;4.30;;;10.10;99.90;;;;;;5071803;28;20583;-56
2022/01/03 10:01:14;;;;;;;24.17;4.15;;;10.10;99.90;;;;;;5075256;28;20040;-56
2022/01/03 10:03:47;;;;;;;22.90;3.65;;;10.10;99.90;;;;;;5074811;28;20047;-56
2022/01/03 10:06:16;;;;;;;23.75;4.25;;;10.20;99.90;;;;;;5073432;28;20384;-57
2022/01/03 10:08:42;;;;;;;21.73;4.25;;;10.20;99.90;;;;;;5068435;28;20037;-56
2022/01/03 10:11:08;;;;;;;26.42;4.20;;;10.20;99.90;;;;;;5067734;28;20041;-57
2022/01/03 10:13:34;;;;;;;25.23;4.00;;;10.20;99.90;;;;;;5067466;28;20058;-56
2022/01/03 10:15:59;;;;;;;18.10;3.70;;;10.20;99.90;;;;;;5073583;28;20041;-55
2022/01/03 10:18:26;;;;;;;20.63;3.97;;;10.20;99.90;;;;;;5066789;28;20076;-56
2022/01/03 10:20:52;;;;;;;21.30;3.70;;;10.30;99.90;;;;;;5060743;28;20057;-55
2022/01/03 10:23:18;;;;;;;22.00;4.43;;;10.20;99.90;;;;;;5070126;28;20047;-55
2022/01/03 10:25:46;;;;;;;20.27;4.45;;;10.30;99.90;;;;;;5072149;28;20067;-57
2022/01/03 10:28:22;;;;;;;18.17;3.40;;;10.30;99.90;;;;;;5072941;28;20068;-56
2022/01/03 10:30:48;;;;;;;19.75;3.83;;;10.40;99.90;;;;;;5071590;28;20044;-55
2022/01/03 10:33:16;;;;;;;22.58;4.32;;;10.40;99.90;;;;;;5072267;28;20041;-56
2022/01/03 10:35:44;;;;;;;24.23;4.28;;;10.40;99.90;;;;;;5068493;28;20066;-57
2022/01/03 10:38:10;;;;;;;25.75;4.22;;;10.40;99.90;;;;;;5063956;28;20237;-56
2022/01/03 10:40:37;;;;;;;20.33;4.43;;;10.40;99.90;;;;;;5058399;28;20532;-57
2022/01/03 10:43:19;;;;;;;21.70;4.00;;;10.40;99.90;;;;;;5057910;28;20088;-56
2022/01/03 10:45:46;;;;;;;23.63;4.25;;;10.40;99.90;;;;;;5069197;28;20044;-56
2022/01/03 10:48:33;;;;;;;22.20;3.70;;;10.40;99.90;;;;;;5060647;28;20075;-57
2022/01/03 10:51:00;;;;;;;20.92;3.78;;;10.40;99.90;;;;;;5058947;28;20037;-55
2022/01/03 10:53:43;;;;;;;20.10;4.28;;;10.40;99.90;;;;;;5064112;28;20041;-55
2022/01/03 10:56:29;;;;;;;23.73;4.13;;;10.50;99.90;;;;;;5056842;28;20174;-55
2022/01/03 10:59:11;;;;;;;22.85;4.82;;;10.50;99.90;;;;;;5059634;28;20499;-56
2022/01/03 11:01:37;;;;;;;24.48;3.65;;;10.60;99.90;;;;;;5076020;28;20136;-56
2022/01/03 11:04:03;;;;;;;17.50;3.65;;;10.60;99.90;;;;;;5065974;28;20132;-56
2022/01/03 11:11:42;;;;;;;24.00;4.88;;;10.50;99.90;;;;;;5075692;28;20230;-56
2022/01/03 11:14:09;;;;;;;21.38;3.90;;;10.50;99.90;;;;;;5063176;28;20444;-56
2022/01/03 11:16:39;;;;;;;17.20;3.88;;;10.50;99.90;;;;;;5064978;28;20076;-56
2022/01/03 11:19:05;;;;;;;19.75;4.13;;;10.50;99.90;;;;;;5060274;28;20045;-56
2022/01/03 11:21:31;;;;;;;18.55;3.80;;;10.50;99.90;;;;;;5060450;28;20059;-56
2022/01/03 11:24:10;;;;;;;22.27;4.07;;;10.50;99.90;;;;;;5065555;28;20072;-57
2022/01/03 11:26:48;;;;;;;19.23;3.78;;;10.50;99.90;;;;;;5061531;28;20436;-57
2022/01/03 11:29:15;;;;;;;24.40;4.75;;;10.60;99.90;;;;;;5056047;28;20463;-56
2022/01/03 11:31:42;;;;;;;19.52;3.83;;;10.60;99.90;;;;;;5056398;28;20343;-56
2022/01/03 11:34:09;;;;;;;19.83;3.90;;;10.60;99.90;;;;;;5063873;28;20036;-56
2022/01/03 11:36:36;;;;;;;19.37;3.80;;;10.50;99.90;;;;;;5069352;28;20036;-56
2022/01/03 11:39:13;;;;;;;22.20;4.13;;;10.50;99.90;;;;;;5065009;28;20059;-56
2022/01/03 11:41:42;;;;;;;20.77;4.15;;;10.40;99.90;;;;;;5069569;28;20105;-56
2022/01/03 11:44:11;;;;;;;19.77;4.05;;;10.40;99.90;;;;;;5070371;28;20049;-56
2022/01/03 11:46:37;;;;;;;20.58;4.50;;;10.40;99.90;;;;;;5065635;28;20071;-56
2022/01/03 11:49:03;;;;;;;19.85;4.00;;;10.40;99.90;;;;;;5056090;28;20037;-55
2022/01/03 11:51:30;;;;;;;22.10;4.55;;;10.50;99.90;;;;;;5056632;28;20047;-56
2022/01/03 11:53:56;;;;;;;18.55;4.15;;;10.60;99.90;;;;;;5073469;28;20059;-56
2022/01/03 11:56:24;;;;;;;24.35;4.88;;;10.60;99.90;;;;;;5075196;28;20076;-56
2022/01/03 11:59:02;;;;;;;20.75;4.10;;;10.60;99.90;;;;;;5068283;28;20592;-54
2022/01/03 12:04:33;;;;;;;20.25;4.05;;;10.70;99.90;;;;;;5060837;28;20075;-56
2022/01/03 12:07:08;;;;;;;25.85;4.82;;;10.70;99.90;;;;;;5059482;28;20045;-55
2022/01/03 12:09:37;;;;;;;20.85;4.05;;;10.70;99.90;;;;;;5073632;28;20422;-57
2022/01/03 12:12:03;;;;;;;19.80;4.18;;;10.70;99.90;;;;;;5074978;28;20380;-56
2022/01/03 12:14:43;;;;;;;21.20;4.55;;;10.70;99.90;;;;;;5073718;28;20135;-56
2022/01/03 12:17:12;;;;;;;26.60;5.03;;;10.70;99.90;;;;;;5076284;28;20068;-55
2022/01/03 12:19:39;;;;;;;17.65;3.85;;;10.80;99.90;;;;;;5076593;28;20138;-55
2022/01/03 12:22:19;;;;;;;27.70;4.50;;;10.90;99.90;;;;;;5075666;28;20036;-55
2022/01/03 12:24:47;;;;;;;22.02;4.43;;;10.90;99.90;;;;;;5075313;28;20050;-56
2022/01/03 12:27:13;;;;;;;24.67;4.88;;;10.90;99.90;;;;;;5076613;28;20115;-57
2022/01/03 12:29:56;;;;;;;25.05;4.50;;;10.90;99.90;;;;;;5056920;28;20134;-56
2022/01/03 12:32:33;;;;;;;29.60;4.95;;;10.90;99.90;;;;;;5055256;28;20049;-57
2022/01/03 12:35:15;;;;;;;21.70;4.10;;;10.90;99.90;;;;;;5054677;28;20083;-56
2022/01/03 12:37:50;;;;;;;18.88;4.57;;;10.70;99.90;;;;;;5054701;28;20364;-56
2022/01/03 12:40:15;;;;;;;20.10;3.95;;;10.70;99.90;;;;;;5054775;28;20104;-56
2022/01/03 12:42:48;;;;;;;22.25;4.05;;;10.70;99.90;;;;;;5061200;28;20544;-56
2022/01/03 12:45:33;;;;;;;19.40;3.97;;;10.60;99.90;;;;;;5064342;28;20427;-55
2022/01/03 12:48:08;;;;;;;17.58;3.85;;;10.60;99.90;;;;;;5054110;28;20069;-54
2022/01/03 12:50:36;;;;;;;20.08;3.70;;;10.60;99.90;;;;;;5054715;28;20053;-55
2022/01/03 12:53:02;;;;;;;22.17;3.90;;;10.60;99.90;;;;;;5063562;28;20125;-55
2022/01/03 12:55:37;;;;;;;25.55;4.65;;;10.60;99.90;;;;;;5075432;28;20041;-56
2022/01/03 12:58:16;;;;;;;23.85;4.57;;;10.60;99.90;;;;;;5070545;28;20041;-56
2022/01/03 13:00:44;;;;;;;23.08;4.28;;;10.50;99.90;;;;;;5054936;28;20048;-56
2022/01/03 13:03:49;;;;;;;22.42;3.90;;;10.50;99.90;;;;;;5060915;28;20096;-56
2022/01/03 13:06:18;;;;;;;22.60;4.25;;;10.40;99.90;;;;;;5069112;28;20483;-55
2022/01/03 13:09:02;;;;;;;20.23;4.40;;;10.40;99.90;;;;;;5058440;28;20053;-56